sensor_id;sensor_type;location;lat;lon;timestamp;P1;durP1;ratioP1;P2;durP2;ratioP2
19187;SDS011;9726;52.198;8.792;2023-01-29T00:01:38;54.63;;;25.90;;
19187;SDS011;9726;52.198;8.792;2023-01-29T00:04:06;49.53;;;24.40;;
19187;SDS011;9726;52.198;8.792;2023-01-29T00:06:34;51.23;;;24.90;;
19187;SDS011;9726;52.198;8.792;2023-01-29T00:09:01;51.83;;;26.13;;
19187;SDS011;9726;52.198;8.792;2023-01-29T00:11:28;51.70;;;25.83;;
19187;SDS011;9726;52.198;8.792;2023-01-29T00:13:57;53.60;;;24.23;;
19187;SDS011;9726;52.198;8.792;2023-01-29T00:16:25;49.63;;;23.60;;
19187;SDS011;9726;52.198;8.792;2023-01-29T00:18:52;47.70;;;23.07;;
19187;SDS011;9726;52.198;8.792;2023-01-29T00:21:20;46.30;;;22.50;;
19187;SDS011;9726;52.198;8.792;2023-01-29T00:23:48;53.33;;;23.43;;
19187;SDS011;9726;52.198;8.792;2023-01-29T00:26:16;52.53;;;24.50;;
19187;SDS011;9726;52.198;8.792;2023-01-29T00:28:46;48.37;;;24.13;;
19187;SDS011;9726;52.198;8.792;2023-01-29T00:31:21;49.90;;;24.07;;
19187;SDS011;9726;52.198;8.792;2023-01-29T00:33:49;52.50;;;24.50;;
19187;SDS011;9726;52.198;8.792;2023-01-29T00:36:17;50.93;;;24.13;;
19187;SDS011;9726;52.198;8.792;2023-01-29T00:38:45;49.93;;;22.90;;
19187;SDS011;9726;52.198;8.792;2023-01-29T00:41:21;56.33;;;24.63;;
19187;SDS011;9726;52.198;8.792;2023-01-29T00:44:07;52.20;;;22.37;;
19187;SDS011;9726;52.198;8.792;2023-01-29T00:46:53;45.53;;;20.97;;
19187;SDS011;9726;52.198;8.792;2023-01-29T00:49:21;46.97;;;23.00;;
19187;SDS011;9726;52.198;8.792;2023-01-29T00:51:49;49.50;;;23.03;;
19187;SDS011;9726;52.198;8.792;2023-01-29T00:54:36;45.83;;;23.53;;
19187;SDS011;9726;52.198;8.792;2023-01-29T00:57:04;52.07;;;22.00;;
19187;SDS011;9726;52.198;8.792;2023-01-29T00:59:31;48.00;;;22.67;;
19187;SDS011;9726;52.198;8.792;2023-01-29T01:01:58;45.43;;;19.67;;
19187;SDS011;9726;52.198;8.792;2023-01-29T01:04:45;44.83;;;21.80;;
19187;SDS011;9726;52.198;8.792;2023-01-29T01:07:12;44.50;;;21.80;;
19187;SDS011;9726;52.198;8.792;2023-01-29T01:09:40;42.70;;;21.07;;
19187;SDS011;9726;52.198;8.792;2023-01-29T01:12:26;43.20;;;19.47;;
19187;SDS011;9726;52.198;8.792;2023-01-29T01:14:54;48.27;;;22.13;;
19187;SDS011;9726;52.198;8.792;2023-01-29T01:17:21;47.80;;;23.53;;
19187;SDS011;9726;52.198;8.792;2023-01-29T01:19:48;43.50;;;20.33;;
19187;SDS011;9726;52.198;8.792;2023-01-29T01:22:16;43.53;;;22.07;;
19187;SDS011;9726;52.198;8.792;2023-01-29T01:24:43;50.33;;;24.20;;
19187;SDS011;9726;52.198;8.792;2023-01-29T01:27:11;51.37;;;23.43;;
19187;SDS011;9726;52.198;8.792;2023-01-29T01:29:39;45.30;;;20.93;;
19187;SDS011;9726;52.198;8.792;2023-01-29T01:32:06;46.03;;;20.03;;
19187;SDS011;9726;52.198;8.792;2023-01-29T01:34:34;43.37;;;22.30;;
19187;SDS011;9726;52.198;8.792;2023-01-29T01:37:01;43.27;;;20.93;;
19187;SDS011;9726;52.198;8.792;2023-01-29T01:39:29;42.77;;;20.37;;
19187;SDS011;9726;52.198;8.792;2023-01-29T01:41:56;46.20;;;21.50;;
19187;SDS011;9726;52.198;8.792;2023-01-29T01:47:10;45.30;;;19.27;;
19187;SDS011;9726;52.198;8.792;2023-01-29T01:49:38;58.73;;;21.50;;
19187;SDS011;9726;52.198;8.792;2023-01-29T01:52:05;46.03;;;22.13;;
19187;SDS011;9726;52.198;8.792;2023-01-29T01:54:34;46.90;;;20.70;;
19187;SDS011;9726;52.198;8.792;2023-01-29T01:57:03;48.73;;;22.70;;
19187;SDS011;9726;52.198;8.792;2023-01-29T01:59:48;49.13;;;22.33;;
19187;SDS011;9726;52.198;8.792;2023-01-29T02:02:18;42.33;;;20.20;;
19187;SDS011;9726;52.198;8.792;2023-01-29T02:05:05;48.27;;;21.50;;
19187;SDS011;9726;52.198;8.792;2023-01-29T02:07:51;46.70;;;22.30;;
19187;SDS011;9726;52.198;8.792;2023-01-29T02:10:42;52.60;;;21.60;;
19187;SDS011;9726;52.198;8.792;2023-01-29T02:13:09;47.23;;;21.33;;
19187;SDS011;9726;52.198;8.792;2023-01-29T02:15:38;42.37;;;19.93;;
19187;SDS011;9726;52.198;8.792;2023-01-29T02:18:14;55.23;;;23.10;;
19187;SDS011;9726;52.198;8.792;2023-01-29T02:20:47;49.63;;;21.97;;
19187;SDS011;9726;52.198;8.792;2023-01-29T02:23:20;48.60;;;22.83;;
19187;SDS011;9726;52.198;8.792;2023-01-29T02:25:58;50.87;;;22.70;;
19187;SDS011;9726;52.198;8.792;2023-01-29T02:28:35;53.27;;;23.80;;
19187;SDS011;9726;52.198;8.792;2023-01-29T02:36:06;48.97;;;21.40;;
19187;SDS011;9726;52.198;8.792;2023-01-29T02:38:52;54.80;;;24.03;;
19187;SDS011;9726;52.198;8.792;2023-01-29T02:51:19;59.63;;;24.83;;
19187;SDS011;9726;52.198;8.792;2023-01-29T02:53:52;53.83;;;24.73;;
19187;SDS011;9726;52.198;8.792;2023-01-29T02:56:26;55.60;;;24.87;;
19187;SDS011;9726;52.198;8.792;2023-01-29T02:58:59;57.47;;;26.20;;
19187;SDS011;9726;52.198;8.792;2023-01-29T03:01:39;58.30;;;25.53;;
19187;SDS011;9726;52.198;8.792;2023-01-29T03:04:14;54.63;;;25.53;;
19187;SDS011;9726;52.198;8.792;2023-01-29T03:06:45;55.23;;;26.13;;
19187;SDS011;9726;52.198;8.792;2023-01-29T03:09:35;61.33;;;26.67;;
19187;SDS011;9726;52.198;8.792;2023-01-29T03:12:09;60.63;;;27.63;;
19187;SDS011;9726;52.198;8.792;2023-01-29T03:15:02;60.63;;;26.63;;
19187;SDS011;9726;52.198;8.792;2023-01-29T03:17:59;57.93;;;26.20;;
19187;SDS011;9726;52.198;8.792;2023-01-29T03:20:30;50.57;;;24.87;;
19187;SDS011;9726;52.198;8.792;2023-01-29T03:23:00;54.30;;;26.80;;
19187;SDS011;9726;52.198;8.792;2023-01-29T03:25:31;66.93;;;27.63;;
19187;SDS011;9726;52.198;8.792;2023-01-29T03:28:21;63.13;;;28.97;;
19187;SDS011;9726;52.198;8.792;2023-01-29T03:31:09;64.97;;;29.60;;
19187;SDS011;9726;52.198;8.792;2023-01-29T03:34:00;61.93;;;28.13;;
19187;SDS011;9726;52.198;8.792;2023-01-29T03:36:34;73.67;;;32.13;;
19187;SDS011;9726;52.198;8.792;2023-01-29T03:39:12;62.30;;;28.77;;
19187;SDS011;9726;52.198;8.792;2023-01-29T03:42:03;63.60;;;28.73;;
19187;SDS011;9726;52.198;8.792;2023-01-29T03:45:15;73.20;;;29.73;;
19187;SDS011;9726;52.198;8.792;2023-01-29T03:47:33;72.03;;;30.87;;
19187;SDS011;9726;52.198;8.792;2023-01-29T03:52:44;74.50;;;30.50;;
19187;SDS011;9726;52.198;8.792;2023-01-29T03:57:49;77.03;;;32.63;;
19187;SDS011;9726;52.198;8.792;2023-01-29T04:00:39;76.70;;;30.00;;
19187;SDS011;9726;52.198;8.792;2023-01-29T04:05:44;78.40;;;32.33;;
19187;SDS011;9726;52.198;8.792;2023-01-29T04:08:26;75.17;;;32.30;;
19187;SDS011;9726;52.198;8.792;2023-01-29T04:10:58;68.47;;;29.77;;
19187;SDS011;9726;52.198;8.792;2023-01-29T04:13:29;73.77;;;34.00;;
19187;SDS011;9726;52.198;8.792;2023-01-29T04:16:00;74.17;;;31.93;;
19187;SDS011;9726;52.198;8.792;2023-01-29T04:18:49;70.87;;;30.77;;
19187;SDS011;9726;52.198;8.792;2023-01-29T04:21:24;69.83;;;30.87;;
19187;SDS011;9726;52.198;8.792;2023-01-29T04:23:51;79.33;;;34.40;;
19187;SDS011;9726;52.198;8.792;2023-01-29T04:29:14;72.87;;;32.60;;
19187;SDS011;9726;52.198;8.792;2023-01-29T04:34:20;79.07;;;35.57;;
19187;SDS011;9726;52.198;8.792;2023-01-29T04:37:04;79.47;;;34.50;;
19187;SDS011;9726;52.198;8.792;2023-01-29T04:39:48;79.50;;;33.53;;
19187;SDS011;9726;52.198;8.792;2023-01-29T04:42:23;87.40;;;33.60;;
19187;SDS011;9726;52.198;8.792;2023-01-29T04:45:02;86.20;;;33.40;;
19187;SDS011;9726;52.198;8.792;2023-01-29T04:47:39;77.30;;;33.70;;
19187;SDS011;9726;52.198;8.792;2023-01-29T04:50:27;82.77;;;33.00;;
19187;SDS011;9726;52.198;8.792;2023-01-29T05:00:39;76.27;;;32.00;;
19187;SDS011;9726;52.198;8.792;2023-01-29T05:03:07;83.80;;;35.80;;
19187;SDS011;9726;52.198;8.792;2023-01-29T05:05:37;80.90;;;34.97;;
19187;SDS011;9726;52.198;8.792;2023-01-29T05:08:06;76.53;;;32.47;;
19187;SDS011;9726;52.198;8.792;2023-01-29T05:10:33;80.30;;;35.10;;
19187;SDS011;9726;52.198;8.792;2023-01-29T05:13:02;86.77;;;35.77;;
19187;SDS011;9726;52.198;8.792;2023-01-29T05:15:40;76.60;;;32.77;;
19187;SDS011;9726;52.198;8.792;2023-01-29T05:18:09;74.77;;;33.77;;
19187;SDS011;9726;52.198;8.792;2023-01-29T05:20:37;84.30;;;33.43;;
19187;SDS011;9726;52.198;8.792;2023-01-29T05:23:08;77.80;;;32.07;;
19187;SDS011;9726;52.198;8.792;2023-01-29T05:25:36;76.13;;;33.40;;
19187;SDS011;9726;52.198;8.792;2023-01-29T05:28:03;84.80;;;35.37;;
19187;SDS011;9726;52.198;8.792;2023-01-29T05:30:32;82.10;;;34.90;;
19187;SDS011;9726;52.198;8.792;2023-01-29T05:33:00;77.97;;;34.10;;
19187;SDS011;9726;52.198;8.792;2023-01-29T05:35:28;69.93;;;32.17;;
19187;SDS011;9726;52.198;8.792;2023-01-29T05:37:55;80.03;;;36.57;;
19187;SDS011;9726;52.198;8.792;2023-01-29T05:40:23;75.53;;;33.00;;
19187;SDS011;9726;52.198;8.792;2023-01-29T05:42:51;72.83;;;32.07;;
19187;SDS011;9726;52.198;8.792;2023-01-29T05:45:19;81.10;;;36.53;;
19187;SDS011;9726;52.198;8.792;2023-01-29T05:47:46;80.50;;;34.27;;
19187;SDS011;9726;52.198;8.792;2023-01-29T05:50:14;84.03;;;36.60;;
19187;SDS011;9726;52.198;8.792;2023-01-29T05:52:42;72.40;;;31.63;;
19187;SDS011;9726;52.198;8.792;2023-01-29T05:55:09;83.97;;;35.40;;
19187;SDS011;9726;52.198;8.792;2023-01-29T05:57:38;85.63;;;33.47;;
19187;SDS011;9726;52.198;8.792;2023-01-29T06:00:06;87.90;;;35.10;;
19187;SDS011;9726;52.198;8.792;2023-01-29T06:02:38;80.10;;;35.03;;
19187;SDS011;9726;52.198;8.792;2023-01-29T06:05:05;83.00;;;36.43;;
19187;SDS011;9726;52.198;8.792;2023-01-29T06:07:33;85.87;;;36.03;;
19187;SDS011;9726;52.198;8.792;2023-01-29T06:10:02;82.70;;;36.00;;
19187;SDS011;9726;52.198;8.792;2023-01-29T06:12:29;77.20;;;35.90;;
19187;SDS011;9726;52.198;8.792;2023-01-29T06:14:57;85.40;;;35.77;;
19187;SDS011;9726;52.198;8.792;2023-01-29T06:17:24;81.50;;;33.40;;
19187;SDS011;9726;52.198;8.792;2023-01-29T06:19:51;84.03;;;35.63;;
19187;SDS011;9726;52.198;8.792;2023-01-29T06:22:19;87.97;;;36.30;;
19187;SDS011;9726;52.198;8.792;2023-01-29T06:24:46;79.50;;;34.83;;
19187;SDS011;9726;52.198;8.792;2023-01-29T06:27:13;85.87;;;34.50;;
19187;SDS011;9726;52.198;8.792;2023-01-29T06:29:40;78.27;;;34.87;;
19187;SDS011;9726;52.198;8.792;2023-01-29T06:32:08;80.37;;;34.90;;
19187;SDS011;9726;52.198;8.792;2023-01-29T06:34:35;88.90;;;38.30;;
19187;SDS011;9726;52.198;8.792;2023-01-29T06:37:03;90.23;;;35.80;;
19187;SDS011;9726;52.198;8.792;2023-01-29T06:39:30;86.00;;;36.63;;
19187;SDS011;9726;52.198;8.792;2023-01-29T06:41:58;90.13;;;37.30;;
19187;SDS011;9726;52.198;8.792;2023-01-29T06:44:25;92.97;;;35.07;;
19187;SDS011;9726;52.198;8.792;2023-01-29T06:46:53;90.07;;;37.10;;
19187;SDS011;9726;52.198;8.792;2023-01-29T06:49:20;93.20;;;37.23;;
19187;SDS011;9726;52.198;8.792;2023-01-29T06:51:48;84.83;;;36.67;;
19187;SDS011;9726;52.198;8.792;2023-01-29T06:54:15;82.33;;;36.13;;
19187;SDS011;9726;52.198;8.792;2023-01-29T06:56:43;88.00;;;37.17;;
19187;SDS011;9726;52.198;8.792;2023-01-29T06:59:10;89.33;;;37.17;;
19187;SDS011;9726;52.198;8.792;2023-01-29T07:01:38;85.93;;;35.83;;
19187;SDS011;9726;52.198;8.792;2023-01-29T07:04:10;90.30;;;39.23;;
19187;SDS011;9726;52.198;8.792;2023-01-29T07:06:37;103.83;;;37.07;;
19187;SDS011;9726;52.198;8.792;2023-01-29T07:09:05;89.63;;;36.70;;
19187;SDS011;9726;52.198;8.792;2023-01-29T07:11:33;99.00;;;39.40;;
19187;SDS011;9726;52.198;8.792;2023-01-29T07:14:00;92.23;;;38.17;;
19187;SDS011;9726;52.198;8.792;2023-01-29T07:16:27;85.37;;;36.43;;
19187;SDS011;9726;52.198;8.792;2023-01-29T07:18:55;93.40;;;37.90;;
19187;SDS011;9726;52.198;8.792;2023-01-29T07:21:23;100.87;;;40.70;;
19187;SDS011;9726;52.198;8.792;2023-01-29T07:23:50;93.20;;;38.50;;
19187;SDS011;9726;52.198;8.792;2023-01-29T07:26:17;82.93;;;33.80;;
19187;SDS011;9726;52.198;8.792;2023-01-29T07:28:45;99.00;;;40.77;;
19187;SDS011;9726;52.198;8.792;2023-01-29T07:31:12;97.07;;;40.03;;
19187;SDS011;9726;52.198;8.792;2023-01-29T07:33:43;94.20;;;38.93;;
19187;SDS011;9726;52.198;8.792;2023-01-29T07:36:11;102.90;;;41.00;;
19187;SDS011;9726;52.198;8.792;2023-01-29T07:38:39;78.93;;;33.10;;
19187;SDS011;9726;52.198;8.792;2023-01-29T07:41:07;103.37;;;41.33;;
19187;SDS011;9726;52.198;8.792;2023-01-29T07:43:35;92.37;;;38.90;;
19187;SDS011;9726;52.198;8.792;2023-01-29T07:46:02;82.03;;;30.93;;
19187;SDS011;9726;52.198;8.792;2023-01-29T07:48:30;89.63;;;37.77;;
19187;SDS011;9726;52.198;8.792;2023-01-29T07:50:58;99.33;;;39.47;;
19187;SDS011;9726;52.198;8.792;2023-01-29T07:53:26;96.67;;;38.23;;
19187;SDS011;9726;52.198;8.792;2023-01-29T07:55:53;92.23;;;37.70;;
19187;SDS011;9726;52.198;8.792;2023-01-29T07:58:20;93.13;;;37.70;;
19187;SDS011;9726;52.198;8.792;2023-01-29T08:00:48;100.00;;;39.37;;
19187;SDS011;9726;52.198;8.792;2023-01-29T08:03:16;95.33;;;40.57;;
19187;SDS011;9726;52.198;8.792;2023-01-29T08:05:44;99.60;;;41.10;;
19187;SDS011;9726;52.198;8.792;2023-01-29T08:08:11;82.87;;;35.13;;
19187;SDS011;9726;52.198;8.792;2023-01-29T08:10:39;97.07;;;40.33;;
19187;SDS011;9726;52.198;8.792;2023-01-29T08:13:07;98.73;;;41.00;;
19187;SDS011;9726;52.198;8.792;2023-01-29T08:15:34;89.07;;;37.80;;
19187;SDS011;9726;52.198;8.792;2023-01-29T08:18:07;93.67;;;37.13;;
19187;SDS011;9726;52.198;8.792;2023-01-29T08:20:36;87.10;;;36.90;;
19187;SDS011;9726;52.198;8.792;2023-01-29T08:23:04;97.30;;;48.72;;
19187;SDS011;9726;52.198;8.792;2023-01-29T08:25:33;86.97;;;39.37;;
19187;SDS011;9726;52.198;8.792;2023-01-29T08:28:00;78.57;;;36.23;;
19187;SDS011;9726;52.198;8.792;2023-01-29T08:30:29;78.20;;;34.73;;
19187;SDS011;9726;52.198;8.792;2023-01-29T08:32:56;78.20;;;33.20;;
19187;SDS011;9726;52.198;8.792;2023-01-29T08:35:24;87.30;;;37.67;;
19187;SDS011;9726;52.198;8.792;2023-01-29T08:37:55;80.57;;;35.07;;
19187;SDS011;9726;52.198;8.792;2023-01-29T08:40:25;85.57;;;37.30;;
19187;SDS011;9726;52.198;8.792;2023-01-29T08:42:56;80.83;;;34.37;;
19187;SDS011;9726;52.198;8.792;2023-01-29T08:45:27;79.27;;;36.80;;
19187;SDS011;9726;52.198;8.792;2023-01-29T08:47:55;92.27;;;36.43;;
19187;SDS011;9726;52.198;8.792;2023-01-29T08:50:23;84.07;;;35.20;;
19187;SDS011;9726;52.198;8.792;2023-01-29T08:52:50;91.93;;;40.10;;
19187;SDS011;9726;52.198;8.792;2023-01-29T08:55:18;81.10;;;33.90;;
19187;SDS011;9726;52.198;8.792;2023-01-29T08:57:54;81.40;;;36.80;;
19187;SDS011;9726;52.198;8.792;2023-01-29T09:00:25;82.30;;;35.23;;
19187;SDS011;9726;52.198;8.792;2023-01-29T09:02:53;84.30;;;36.60;;
19187;SDS011;9726;52.198;8.792;2023-01-29T09:05:20;84.90;;;38.43;;
19187;SDS011;9726;52.198;8.792;2023-01-29T09:07:47;93.83;;;38.93;;
19187;SDS011;9726;52.198;8.792;2023-01-29T09:10:15;76.10;;;36.07;;
19187;SDS011;9726;52.198;8.792;2023-01-29T09:12:44;84.53;;;35.23;;
19187;SDS011;9726;52.198;8.792;2023-01-29T09:15:12;78.60;;;35.03;;
19187;SDS011;9726;52.198;8.792;2023-01-29T09:17:45;83.27;;;36.83;;
19187;SDS011;9726;52.198;8.792;2023-01-29T09:20:17;82.37;;;36.07;;
19187;SDS011;9726;52.198;8.792;2023-01-29T09:22:47;91.50;;;40.23;;
19187;SDS011;9726;52.198;8.792;2023-01-29T09:25:21;76.77;;;34.20;;
19187;SDS011;9726;52.198;8.792;2023-01-29T09:27:49;70.10;;;30.20;;
19187;SDS011;9726;52.198;8.792;2023-01-29T09:30:18;81.67;;;34.93;;
19187;SDS011;9726;52.198;8.792;2023-01-29T09:32:46;95.47;;;38.57;;
19187;SDS011;9726;52.198;8.792;2023-01-29T09:35:21;90.23;;;37.97;;
19187;SDS011;9726;52.198;8.792;2023-01-29T09:37:49;79.93;;;32.27;;
19187;SDS011;9726;52.198;8.792;2023-01-29T09:42:49;83.87;;;35.43;;
19187;SDS011;9726;52.198;8.792;2023-01-29T09:45:25;84.63;;;36.43;;
19187;SDS011;9726;52.198;8.792;2023-01-29T09:48:00;87.03;;;35.73;;
19187;SDS011;9726;52.198;8.792;2023-01-29T09:50:33;85.33;;;35.73;;
19187;SDS011;9726;52.198;8.792;2023-01-29T09:53:23;74.83;;;32.63;;
19187;SDS011;9726;52.198;8.792;2023-01-29T09:56:00;84.97;;;37.60;;
19187;SDS011;9726;52.198;8.792;2023-01-29T09:58:40;84.63;;;35.87;;
19187;SDS011;9726;52.198;8.792;2023-01-29T10:01:13;82.00;;;35.50;;
19187;SDS011;9726;52.198;8.792;2023-01-29T10:03:53;81.90;;;32.83;;
19187;SDS011;9726;52.198;8.792;2023-01-29T10:11:59;86.57;;;35.73;;
19187;SDS011;9726;52.198;8.792;2023-01-29T10:14:32;82.07;;;35.93;;
19187;SDS011;9726;52.198;8.792;2023-01-29T10:22:48;66.83;;;28.67;;
19187;SDS011;9726;52.198;8.792;2023-01-29T10:25:22;66.87;;;29.00;;
19187;SDS011;9726;52.198;8.792;2023-01-29T10:27:52;59.27;;;26.73;;
19187;SDS011;9726;52.198;8.792;2023-01-29T10:30:24;74.70;;;32.60;;
19187;SDS011;9726;52.198;8.792;2023-01-29T10:33:00;85.77;;;35.87;;
19187;SDS011;9726;52.198;8.792;2023-01-29T10:35:40;85.50;;;36.50;;
19187;SDS011;9726;52.198;8.792;2023-01-29T10:40:45;83.67;;;36.43;;
19187;SDS011;9726;52.198;8.792;2023-01-29T10:43:16;87.03;;;36.53;;
19187;SDS011;9726;52.198;8.792;2023-01-29T10:50:54;81.93;;;35.37;;
19187;SDS011;9726;52.198;8.792;2023-01-29T10:53:44;93.20;;;38.50;;
19187;SDS011;9726;52.198;8.792;2023-01-29T10:58:53;78.13;;;34.67;;
19187;SDS011;9726;52.198;8.792;2023-01-29T11:01:27;79.87;;;35.77;;
19187;SDS011;9726;52.198;8.792;2023-01-29T11:04:08;86.13;;;38.17;;
19187;SDS011;9726;52.198;8.792;2023-01-29T11:06:36;90.27;;;38.53;;
19187;SDS011;9726;52.198;8.792;2023-01-29T11:09:07;84.97;;;35.93;;
19187;SDS011;9726;52.198;8.792;2023-01-29T11:11:49;72.10;;;32.83;;
19187;SDS011;9726;52.198;8.792;2023-01-29T11:14:23;78.90;;;34.80;;
19187;SDS011;9726;52.198;8.792;2023-01-29T11:16:54;87.43;;;38.90;;
19187;SDS011;9726;52.198;8.792;2023-01-29T11:19:40;93.77;;;39.00;;
19187;SDS011;9726;52.198;8.792;2023-01-29T11:22:15;85.50;;;38.63;;
19187;SDS011;9726;52.198;8.792;2023-01-29T11:25:14;87.73;;;39.27;;
19187;SDS011;9726;52.198;8.792;2023-01-29T11:27:45;81.17;;;36.43;;
19187;SDS011;9726;52.198;8.792;2023-01-29T11:30:23;76.53;;;32.83;;
19187;SDS011;9726;52.198;8.792;2023-01-29T11:33:35;76.50;;;32.43;;
19187;SDS011;9726;52.198;8.792;2023-01-29T11:35:43;80.77;;;37.00;;
19187;SDS011;9726;52.198;8.792;2023-01-29T11:40:45;85.47;;;36.00;;
19187;SDS011;9726;52.198;8.792;2023-01-29T11:43:20;94.50;;;35.77;;
19187;SDS011;9726;52.198;8.792;2023-01-29T11:45:58;78.03;;;34.60;;
19187;SDS011;9726;52.198;8.792;2023-01-29T11:48:46;47.93;;;22.47;;
19187;SDS011;9726;52.198;8.792;2023-01-29T11:51:21;73.67;;;31.80;;
19187;SDS011;9726;52.198;8.792;2023-01-29T11:53:54;79.90;;;35.10;;
19187;SDS011;9726;52.198;8.792;2023-01-29T11:56:26;82.57;;;36.30;;
19187;SDS011;9726;52.198;8.792;2023-01-29T11:59:00;85.23;;;37.20;;
19187;SDS011;9726;52.198;8.792;2023-01-29T12:01:37;83.70;;;34.57;;
19187;SDS011;9726;52.198;8.792;2023-01-29T12:04:15;83.30;;;35.53;;
19187;SDS011;9726;52.198;8.792;2023-01-29T12:06:51;80.60;;;34.50;;
19187;SDS011;9726;52.198;8.792;2023-01-29T12:09:21;68.07;;;29.93;;
19187;SDS011;9726;52.198;8.792;2023-01-29T12:11:50;77.97;;;34.63;;
19187;SDS011;9726;52.198;8.792;2023-01-29T12:14:26;81.70;;;36.73;;
19187;SDS011;9726;52.198;8.792;2023-01-29T12:17:07;81.20;;;35.13;;
19187;SDS011;9726;52.198;8.792;2023-01-29T12:19:41;79.37;;;34.07;;
19187;SDS011;9726;52.198;8.792;2023-01-29T12:22:16;93.90;;;34.47;;
19187;SDS011;9726;52.198;8.792;2023-01-29T12:28:18;79.50;;;34.70;;
19187;SDS011;9726;52.198;8.792;2023-01-29T12:30:53;77.97;;;32.53;;
19187;SDS011;9726;52.198;8.792;2023-01-29T12:33:38;75.20;;;35.40;;
19187;SDS011;9726;52.198;8.792;2023-01-29T12:38:40;77.10;;;32.07;;
19187;SDS011;9726;52.198;8.792;2023-01-29T12:43:42;70.77;;;31.50;;
19187;SDS011;9726;52.198;8.792;2023-01-29T12:46:20;69.90;;;31.53;;
19187;SDS011;9726;52.198;8.792;2023-01-29T12:48:53;70.40;;;31.80;;
19187;SDS011;9726;52.198;8.792;2023-01-29T12:51:23;76.63;;;29.73;;
19187;SDS011;9726;52.198;8.792;2023-01-29T12:54:04;76.17;;;30.67;;
19187;SDS011;9726;52.198;8.792;2023-01-29T12:56:41;63.40;;;26.40;;
19187;SDS011;9726;52.198;8.792;2023-01-29T12:59:40;64.57;;;28.30;;
19187;SDS011;9726;52.198;8.792;2023-01-29T13:02:28;49.97;;;23.60;;
19187;SDS011;9726;52.198;8.792;2023-01-29T13:05:06;58.47;;;23.57;;
19187;SDS011;9726;52.198;8.792;2023-01-29T13:07:46;60.93;;;26.70;;
19187;SDS011;9726;52.198;8.792;2023-01-29T13:10:20;61.33;;;26.37;;
19187;SDS011;9726;52.198;8.792;2023-01-29T13:13:05;78.37;;;28.77;;
19187;SDS011;9726;52.198;8.792;2023-01-29T13:15:39;54.60;;;25.80;;
19187;SDS011;9726;52.198;8.792;2023-01-29T13:18:30;59.80;;;26.97;;
19187;SDS011;9726;52.198;8.792;2023-01-29T13:21:19;62.53;;;29.00;;
19187;SDS011;9726;52.198;8.792;2023-01-29T13:23:52;62.83;;;26.83;;
19187;SDS011;9726;52.198;8.792;2023-01-29T13:26:38;60.80;;;27.17;;
19187;SDS011;9726;52.198;8.792;2023-01-29T13:29:23;64.43;;;27.30;;
19187;SDS011;9726;52.198;8.792;2023-01-29T13:31:57;64.93;;;28.20;;
19187;SDS011;9726;52.198;8.792;2023-01-29T13:34:29;60.37;;;28.87;;
19187;SDS011;9726;52.198;8.792;2023-01-29T13:37:08;64.10;;;27.13;;
19187;SDS011;9726;52.198;8.792;2023-01-29T13:39:45;58.20;;;27.70;;
19187;SDS011;9726;52.198;8.792;2023-01-29T13:42:37;56.17;;;25.40;;
19187;SDS011;9726;52.198;8.792;2023-01-29T13:45:16;64.23;;;27.93;;
19187;SDS011;9726;52.198;8.792;2023-01-29T13:48:16;65.33;;;28.13;;
19187;SDS011;9726;52.198;8.792;2023-01-29T13:50:54;50.73;;;22.90;;
19187;SDS011;9726;52.198;8.792;2023-01-29T13:53:28;54.70;;;24.50;;
19187;SDS011;9726;52.198;8.792;2023-01-29T14:01:17;63.23;;;28.53;;
19187;SDS011;9726;52.198;8.792;2023-01-29T14:04:02;64.20;;;26.93;;
19187;SDS011;9726;52.198;8.792;2023-01-29T14:06:45;61.23;;;28.40;;
19187;SDS011;9726;52.198;8.792;2023-01-29T14:09:29;61.90;;;26.33;;
19187;SDS011;9726;52.198;8.792;2023-01-29T14:11:57;47.93;;;22.63;;
19187;SDS011;9726;52.198;8.792;2023-01-29T14:17:10;57.67;;;23.47;;
19187;SDS011;9726;52.198;8.792;2023-01-29T14:19:38;66.43;;;27.53;;
19187;SDS011;9726;52.198;8.792;2023-01-29T14:22:19;62.60;;;28.83;;
19187;SDS011;9726;52.198;8.792;2023-01-29T14:24:48;60.67;;;25.90;;
19187;SDS011;9726;52.198;8.792;2023-01-29T14:27:18;64.00;;;25.30;;
19187;SDS011;9726;52.198;8.792;2023-01-29T14:29:46;58.73;;;25.83;;
19187;SDS011;9726;52.198;8.792;2023-01-29T14:34:48;62.80;;;27.97;;
19187;SDS011;9726;52.198;8.792;2023-01-29T14:39:54;64.90;;;27.33;;
19187;SDS011;9726;52.198;8.792;2023-01-29T14:42:57;71.10;;;33.97;;
19187;SDS011;9726;52.198;8.792;2023-01-29T14:45:25;61.23;;;25.87;;
19187;SDS011;9726;52.198;8.792;2023-01-29T14:47:54;59.90;;;26.13;;
19187;SDS011;9726;52.198;8.792;2023-01-29T14:55:38;50.10;;;23.13;;
19187;SDS011;9726;52.198;8.792;2023-01-29T14:58:10;55.77;;;27.20;;
19187;SDS011;9726;52.198;8.792;2023-01-29T15:00:40;62.87;;;29.40;;
19187;SDS011;9726;52.198;8.792;2023-01-29T15:03:14;50.33;;;22.80;;
19187;SDS011;9726;52.198;8.792;2023-01-29T15:05:44;68.50;;;26.53;;
19187;SDS011;9726;52.198;8.792;2023-01-29T15:08:59;62.93;;;26.77;;
19187;SDS011;9726;52.198;8.792;2023-01-29T15:16:41;80.40;;;34.50;;
19187;SDS011;9726;52.198;8.792;2023-01-29T15:19:19;64.50;;;29.20;;
19187;SDS011;9726;52.198;8.792;2023-01-29T15:22:12;58.23;;;25.90;;
19187;SDS011;9726;52.198;8.792;2023-01-29T15:24:40;63.57;;;26.93;;
19187;SDS011;9726;52.198;8.792;2023-01-29T15:27:12;68.43;;;27.53;;
19187;SDS011;9726;52.198;8.792;2023-01-29T15:29:40;70.53;;;29.07;;
19187;SDS011;9726;52.198;8.792;2023-01-29T15:32:14;65.67;;;26.90;;
19187;SDS011;9726;52.198;8.792;2023-01-29T15:34:42;70.23;;;29.53;;
19187;SDS011;9726;52.198;8.792;2023-01-29T15:37:23;73.37;;;29.53;;
19187;SDS011;9726;52.198;8.792;2023-01-29T15:39:52;73.80;;;31.77;;
19187;SDS011;9726;52.198;8.792;2023-01-29T15:42:44;57.30;;;23.30;;
19187;SDS011;9726;52.198;8.792;2023-01-29T15:45:30;79.10;;;30.63;;
19187;SDS011;9726;52.198;8.792;2023-01-29T15:48:10;76.80;;;27.90;;
19187;SDS011;9726;52.198;8.792;2023-01-29T15:50:39;54.47;;;24.03;;
19187;SDS011;9726;52.198;8.792;2023-01-29T15:53:16;77.53;;;29.90;;
19187;SDS011;9726;52.198;8.792;2023-01-29T15:55:45;80.33;;;32.20;;
19187;SDS011;9726;52.198;8.792;2023-01-29T15:58:14;74.40;;;28.87;;
19187;SDS011;9726;52.198;8.792;2023-01-29T16:00:52;68.17;;;29.07;;
19187;SDS011;9726;52.198;8.792;2023-01-29T16:03:23;70.23;;;29.90;;
19187;SDS011;9726;52.198;8.792;2023-01-29T16:05:51;77.17;;;31.13;;
19187;SDS011;9726;52.198;8.792;2023-01-29T16:08:19;69.60;;;29.50;;
19187;SDS011;9726;52.198;8.792;2023-01-29T16:10:54;69.80;;;30.87;;
19187;SDS011;9726;52.198;8.792;2023-01-29T16:13:34;74.83;;;31.23;;
19187;SDS011;9726;52.198;8.792;2023-01-29T16:16:13;80.60;;;33.40;;
19187;SDS011;9726;52.198;8.792;2023-01-29T16:18:43;72.47;;;33.17;;
19187;SDS011;9726;52.198;8.792;2023-01-29T16:24:03;59.80;;;28.43;;
19187;SDS011;9726;52.198;8.792;2023-01-29T16:26:44;80.27;;;32.43;;
19187;SDS011;9726;52.198;8.792;2023-01-29T16:29:17;46.37;;;21.60;;
19187;SDS011;9726;52.198;8.792;2023-01-29T16:31:45;69.63;;;29.00;;
19187;SDS011;9726;52.198;8.792;2023-01-29T16:34:23;69.47;;;29.33;;
19187;SDS011;9726;52.198;8.792;2023-01-29T16:36:50;73.27;;;31.77;;
19187;SDS011;9726;52.198;8.792;2023-01-29T16:39:20;53.27;;;22.70;;
19187;SDS011;9726;52.198;8.792;2023-01-29T16:42:32;76.47;;;32.40;;
19187;SDS011;9726;52.198;8.792;2023-01-29T16:47:35;68.47;;;29.90;;
19187;SDS011;9726;52.198;8.792;2023-01-29T16:55:34;49.23;;;25.47;;
19187;SDS011;9726;52.198;8.792;2023-01-29T16:58:03;56.90;;;25.27;;